Time;durP1;ratioP1;P1;durP2;ratioP2;P2;SDS_P1;SDS_P2;PMS_P1;PMS_P2;Temp;Humidity;BMP_temperature;BMP_pressure;BME280_temperature;BME280_humidity;BME280_pressure;Samples;Min_cycle;Max_cycle;Signal;HPM_P1;HPM_P2
2022/11/05 00:10:37;;;;;;;12.13;5.80;;;12.00;99.90;;;;;;5054827;28;20150;-68
2022/11/05 00:18:34;;;;;;;9.18;6.15;;;12.00;99.90;;;;;;5054595;28;20027;-62
2022/11/05 00:20:59;;;;;;;10.52;6.63;;;12.00;99.90;;;;;;5054455;28;20389;-64
2022/11/05 00:26:10;;;;;;;9.85;6.45;;;11.90;99.90;;;;;;5053888;28;20040;-61
2022/11/05 00:28:39;;;;;;;11.55;6.35;;;11.90;99.90;;;;;;5052584;28;20029;-63
2022/11/05 00:31:11;;;;;;;9.50;6.63;;;11.90;99.90;;;;;;5054438;28;20092;-68
2022/11/05 00:33:37;;;;;;;11.98;6.30;;;11.90;99.90;;;;;;5054010;28;20511;-60
2022/11/05 00:36:05;;;;;;;12.75;6.80;;;11.90;99.90;;;;;;5054185;28;20459;-62
2022/11/05 00:38:31;;;;;;;11.90;6.30;;;11.90;99.90;;;;;;5053911;28;20118;-69
2022/11/05 00:40:56;;;;;;;13.93;6.22;;;11.80;99.90;;;;;;5054183;28;20021;-62
2022/11/05 00:46:06;;;;;;;10.65;6.03;;;11.90;99.90;;;;;;5053676;28;20110;-61
2022/11/05 00:51:16;;;;;;;13.15;6.40;;;11.80;99.90;;;;;;5054052;28;20032;-66
2022/11/05 00:53:42;;;;;;;13.45;6.70;;;11.80;99.80;;;;;;5053867;28;20017;-65
2022/11/05 00:56:07;;;;;;;8.85;5.82;;;11.70;99.80;;;;;;5053896;28;20489;-64
2022/11/05 00:58:33;;;;;;;13.10;6.28;;;11.80;99.80;;;;;;5052084;28;20486;-68
2022/11/05 01:01:00;;;;;;;11.38;7.43;;;11.70;99.80;;;;;;5053637;28;20033;-60
2022/11/05 01:03:28;;;;;;;10.68;6.97;;;11.70;99.80;;;;;;5053881;28;20025;-60
2022/11/05 01:05:57;;;;;;;10.57;6.07;;;11.70;99.70;;;;;;5053168;28;20025;-68
2022/11/05 01:08:25;;;;;;;11.77;6.25;;;11.70;99.80;;;;;;5053236;28;20459;-69
2022/11/05 01:10:56;;;;;;;10.63;6.07;;;11.70;99.80;;;;;;5053602;28;20091;-60
2022/11/05 01:13:26;;;;;;;11.75;6.60;;;11.70;99.70;;;;;;5053108;28;20442;-61
2022/11/05 01:15:52;;;;;;;9.73;6.13;;;11.70;99.70;;;;;;5053268;28;20525;-64
2022/11/05 01:18:19;;;;;;;13.95;6.22;;;11.60;99.70;;;;;;5053174;28;20432;-66
2022/11/05 01:20:45;;;;;;;8.63;6.22;;;11.60;99.70;;;;;;5053381;28;20101;-70
2022/11/05 01:23:10;;;;;;;10.48;6.28;;;11.60;99.70;;;;;;5053322;28;20446;-68
2022/11/05 01:25:36;;;;;;;11.10;6.07;;;11.60;99.80;;;;;;5052637;28;20417;-67
2022/11/05 01:28:02;;;;;;;8.15;5.85;;;11.60;99.70;;;;;;5052363;28;20470;-69
2022/11/05 01:30:28;;;;;;;14.27;5.60;;;11.60;99.70;;;;;;5053138;28;20040;-66
2022/11/05 01:32:53;;;;;;;11.05;6.63;;;11.50;99.60;;;;;;5053097;28;20048;-63
2022/11/05 01:35:19;;;;;;;11.88;6.45;;;11.60;99.60;;;;;;5052880;28;20029;-59
2022/11/05 01:37:45;;;;;;;11.90;6.50;;;11.50;99.50;;;;;;5053074;28;20021;-63
2022/11/05 01:40:14;;;;;;;12.90;6.47;;;11.50;99.60;;;;;;5052753;28;20104;-64
2022/11/05 01:42:40;;;;;;;10.13;6.38;;;11.50;99.50;;;;;;5053034;28;20025;-63
2022/11/05 01:45:05;;;;;;;8.68;6.30;;;11.50;99.50;;;;;;5052862;28;20367;-67
2022/11/05 01:47:36;;;;;;;10.32;6.32;;;11.50;99.50;;;;;;5053283;28;20032;-60
2022/11/05 01:50:25;;;;;;;14.80;5.95;;;11.40;99.60;;;;;;5052738;28;20033;-60
2022/11/05 01:52:54;;;;;;;14.15;6.75;;;11.40;99.50;;;;;;5052858;28;20031;-61
2022/11/05 01:55:23;;;;;;;12.43;6.40;;;11.40;99.60;;;;;;5051222;28;20546;-62
2022/11/05 01:57:52;;;;;;;12.30;5.75;;;11.40;99.40;;;;;;5052610;28;20032;-64
2022/11/05 02:00:17;;;;;;;10.57;6.10;;;11.40;99.50;;;;;;5052666;28;20021;-60
2022/11/05 02:02:43;;;;;;;9.60;5.88;;;11.30;99.40;;;;;;5052907;28;20032;-66
2022/11/05 02:05:11;;;;;;;10.88;6.43;;;11.40;99.60;;;;;;5052415;28;20406;-61
2022/11/05 02:07:37;;;;;;;12.30;6.60;;;11.30;99.30;;;;;;5052393;28;20039;-60
2022/11/05 02:10:06;;;;;;;9.77;5.70;;;11.30;99.30;;;;;;5052133;28;20506;-68
2022/11/05 02:12:33;;;;;;;7.10;6.28;;;11.30;99.20;;;;;;5052867;28;20017;-61
2022/11/05 02:14:58;;;;;;;11.52;6.35;;;11.30;99.20;;;;;;5051903;28;20505;-60
2022/11/05 02:17:50;;;;;;;7.72;6.03;;;11.30;99.20;;;;;;5051755;28;20032;-64
2022/11/05 02:20:34;;;;;;;9.43;6.30;;;11.30;99.20;;;;;;5052563;28;20101;-68
2022/11/05 02:23:08;;;;;;;11.10;6.57;;;11.30;99.20;;;;;;5052560;28;20024;-60
2022/11/05 02:25:58;;;;;;;11.63;6.38;;;11.30;99.20;;;;;;5051710;28;20099;-67
2022/11/05 02:28:41;;;;;;;9.70;6.03;;;11.20;99.20;;;;;;5052184;28;20033;-66
2022/11/05 02:31:15;;;;;;;11.25;6.93;;;11.20;99.10;;;;;;5052496;28;20112;-66
2022/11/05 02:33:56;;;;;;;13.65;7.15;;;11.20;99.20;;;;;;5052444;28;20444;-62
2022/11/05 02:36:33;;;;;;;13.38;6.82;;;11.10;99.20;;;;;;5051769;28;20036;-66
2022/11/05 02:39:18;;;;;;;11.32;6.30;;;11.10;99.30;;;;;;5051920;28;20098;-66
2022/11/05 02:42:23;;;;;;;10.95;6.63;;;11.10;99.20;;;;;;5052676;28;20100;-63
2022/11/05 02:45:10;;;;;;;17.25;7.72;;;11.10;99.20;;;;;;5052334;28;20029;-63
2022/11/05 02:48:05;;;;;;;9.60;6.78;;;11.10;99.20;;;;;;5052374;28;20059;-69
2022/11/05 02:50:43;;;;;;;8.55;6.32;;;11.10;99.20;;;;;;5052258;28;20049;-69
2022/11/05 02:53:10;;;;;;;11.05;7.15;;;11.10;99.30;;;;;;5051511;28;20525;-64
2022/11/05 02:55:38;;;;;;;12.98;6.80;;;11.00;99.40;;;;;;5052100;28;20056;-68
2022/11/05 02:58:05;;;;;;;13.50;6.72;;;11.00;99.40;;;;;;5052243;28;20028;-64
2022/11/05 03:00:50;;;;;;;11.93;6.97;;;11.00;99.40;;;;;;5052274;28;20025;-59
2022/11/05 03:03:41;;;;;;;11.02;6.75;;;11.00;99.30;;;;;;5052151;28;20060;-68
2022/11/05 03:06:28;;;;;;;10.73;6.93;;;11.00;99.40;;;;;;5055972;28;20033;-60
2022/11/05 03:09:03;;;;;;;10.80;6.68;;;11.00;99.60;;;;;;5054133;28;20492;-68
2022/11/05 03:11:31;;;;;;;11.32;6.55;;;11.00;99.70;;;;;;5053434;28;20048;-60
2022/11/05 03:14:31;;;;;;;11.23;7.18;;;10.90;99.70;;;;;;5036403;28;20033;-68
2022/11/05 03:17:03;;;;;;;8.93;6.63;;;10.90;99.70;;;;;;5034847;28;20036;-69
2022/11/05 03:19:43;;;;;;;11.10;7.05;;;10.90;99.90;;;;;;5035250;28;20099;-69
2022/11/05 03:22:17;;;;;;;7.78;6.13;;;10.90;99.90;;;;;;5035142;28;20026;-64
2022/11/05 03:24:47;;;;;;;10.75;6.80;;;10.90;99.90;;;;;;5052226;28;20037;-66
2022/11/05 03:27:19;;;;;;;9.90;6.07;;;10.90;99.90;;;;;;5054593;28;20032;-69
2022/11/05 03:30:00;;;;;;;14.30;6.55;;;10.90;99.90;;;;;;5055526;28;20035;-61
2022/11/05 03:32:30;;;;;;;10.65;6.68;;;10.90;99.90;;;;;;5055162;28;20048;-69
2022/11/05 03:35:02;;;;;;;11.68;6.00;;;10.90;99.90;;;;;;5055268;28;20032;-68
2022/11/05 03:37:32;;;;;;;10.27;5.68;;;10.90;99.90;;;;;;5054924;28;20029;-68
2022/11/05 03:40:00;;;;;;;13.32;6.90;;;10.90;99.90;;;;;;5055396;28;20108;-61
2022/11/05 03:42:31;;;;;;;8.32;5.93;;;10.90;99.90;;;;;;5054811;28;20459;-68
2022/11/05 03:44:59;;;;;;;11.63;5.88;;;10.90;99.90;;;;;;5055220;28;20106;-68
2022/11/05 03:47:29;;;;;;;12.25;6.18;;;10.90;99.90;;;;;;5054958;28;20426;-69
2022/11/05 03:49:58;;;;;;;12.02;5.82;;;10.80;99.90;;;;;;5055047;28;20474;-68
2022/11/05 03:52:28;;;;;;;8.68;5.70;;;10.80;99.90;;;;;;5054682;28;20079;-60
2022/11/05 03:54:54;;;;;;;9.98;6.03;;;10.80;99.90;;;;;;5054984;28;20025;-69
2022/11/05 03:57:25;;;;;;;9.95;5.80;;;10.80;99.90;;;;;;5054890;28;20429;-61
2022/11/05 03:59:50;;;;;;;9.43;5.28;;;10.80;99.90;;;;;;5054638;28;20043;-67
2022/11/05 04:02:20;;;;;;;7.93;6.18;;;10.80;99.90;;;;;;5055188;28;20510;-69
2022/11/05 04:04:46;;;;;;;7.95;4.80;;;10.80;99.90;;;;;;5049989;28;20470;-60
2022/11/05 04:15:25;;;;;;;8.20;4.57;;;10.80;99.90;;;;;;5045385;28;20043;-60
2022/11/05 04:17:51;;;;;;;9.40;5.32;;;10.80;99.90;;;;;;5053093;28;20055;-63
2022/11/05 04:26:02;;;;;;;10.18;5.60;;;10.80;99.90;;;;;;5054129;28;20043;-68
2022/11/05 04:30:17;;;;;;;8.70;5.63;;;10.80;99.90;;;;;;5054178;28;20112;-69
2022/11/05 04:31:13;;;;;;;11.18;5.55;;;10.80;99.90;;;;;;5054344;28;20028;-68
2022/11/05 04:33:38;;;;;;;10.25;6.20;;;10.90;99.90;;;;;;5053786;28;20043;-66
2022/11/05 04:36:04;;;;;;;11.93;6.07;;;10.80;99.90;;;;;;5053676;28;20021;-64
2022/11/05 04:38:30;;;;;;;9.80;5.80;;;10.80;99.90;;;;;;5054027;28;20466;-63
2022/11/05 04:41:12;;;;;;;9.93;5.75;;;10.80;99.90;;;;;;5054260;28;20021;-61
2022/11/05 04:43:38;;;;;;;;;;;10.90;99.90;;;;;;5054317;28;20037;-59
2022/11/05 04:46:03;;;;;;;10.40;6.13;;;10.80;99.90;;;;;;5053884;28;19905;-60
2022/11/05 04:48:29;;;;;;;8.77;5.78;;;10.80;99.90;;;;;;5053587;28;20043;-60
2022/11/05 04:50:54;;;;;;;7.13;5.65;;;10.80;99.90;;;;;;5053363;28;20021;-60
2022/11/05 04:53:20;;;;;;;7.57;5.35;;;10.80;99.90;;;;;;5053772;28;20367;-61
2022/11/05 04:55:45;;;;;;;7.82;5.45;;;10.80;99.90;;;;;;5054089;28;20025;-62
2022/11/05 04:58:11;;;;;;;10.48;6.32;;;10.80;99.90;;;;;;5053608;28;20063;-63
2022/11/05 05:00:36;;;;;;;11.10;6.07;;;10.80;99.90;;;;;;5053912;28;20028;-60
2022/11/05 05:03:02;;;;;;;8.15;5.97;;;10.80;99.90;;;;;;5054057;28;20025;-59
2022/11/05 05:05:29;;;;;;;7.07;4.85;;;10.80;99.90;;;;;;5053278;28;20029;-59
2022/11/05 05:07:59;;;;;;;9.20;6.07;;;10.80;99.90;;;;;;5053181;28;20028;-61
2022/11/05 05:10:25;;;;;;;10.02;5.50;;;10.80;99.90;;;;;;5053176;28;20037;-61
2022/11/05 05:12:50;;;;;;;11.85;6.95;;;10.80;99.90;;;;;;5053699;28;20048;-60
2022/11/05 05:15:16;;;;;;;7.47;5.95;;;10.80;99.90;;;;;;5053424;28;20017;-69
2022/11/05 05:17:42;;;;;;;9.98;5.35;;;10.80;99.90;;;;;;5053105;28;20029;-61
2022/11/05 05:22:54;;;;;;;10.25;5.85;;;10.80;99.90;;;;;;5053451;28;20032;-60
2022/11/05 05:25:21;;;;;;;7.72;5.53;;;10.80;99.90;;;;;;5053061;28;20405;-60
2022/11/05 05:27:46;;;;;;;12.85;6.50;;;10.80;99.90;;;;;;5053258;28;20462;-59
2022/11/05 05:30:12;;;;;;;12.50;5.70;;;10.80;99.90;;;;;;5052703;28;20029;-59
2022/11/05 05:32:37;;;;;;;8.93;5.82;;;10.80;99.90;;;;;;5032858;28;20044;-60
2022/11/05 05:35:03;;;;;;;9.63;6.03;;;10.80;99.90;;;;;;5046804;28;20025;-66
2022/11/05 05:37:29;;;;;;;10.82;6.70;;;10.80;99.90;;;;;;5053200;28;20028;-67
2022/11/05 05:39:54;;;;;;;10.27;5.40;;;10.80;99.90;;;;;;5052936;28;20021;-61
2022/11/05 05:42:21;;;;;;;8.15;5.50;;;10.70;99.90;;;;;;5053246;28;20041;-66
2022/11/05 05:44:47;;;;;;;12.25;5.85;;;10.70;99.90;;;;;;5052619;28;20033;-62
2022/11/05 05:47:13;;;;;;;9.88;5.55;;;10.80;99.90;;;;;;5051562;28;20021;-68
2022/11/05 05:49:39;;;;;;;7.80;5.25;;;10.70;99.90;;;;;;5053036;28;20028;-70
2022/11/05 05:52:04;;;;;;;8.65;5.43;;;10.80;99.90;;;;;;5052955;28;20043;-69
2022/11/05 05:54:30;;;;;;;10.57;6.35;;;10.70;99.90;;;;;;5052589;28;20025;-69
2022/11/05 05:56:56;;;;;;;11.13;5.80;;;10.70;99.90;;;;;;5052551;28;20112;-69
2022/11/05 05:59:22;;;;;;;9.90;6.32;;;10.70;99.90;;;;;;5052292;28;20036;-60
2022/11/05 06:01:48;;;;;;;9.07;6.18;;;10.60;99.90;;;;;;5039554;28;20049;-70
2022/11/05 06:04:14;;;;;;;7.70;5.72;;;10.70;99.90;;;;;;5032606;28;20041;-68
2022/11/05 06:06:39;;;;;;;11.38;6.57;;;10.70;99.90;;;;;;5030304;28;20033;-66
2022/11/05 06:09:05;;;;;;;6.70;5.68;;;10.60;99.90;;;;;;5030765;28;20395;-70
2022/11/05 06:11:30;;;;;;;11.45;6.68;;;10.60;99.90;;;;;;5032681;28;20036;-69
2022/11/05 06:13:56;;;;;;;11.95;6.28;;;10.60;99.90;;;;;;5032632;28;20029;-60
2022/11/05 06:16:22;;;;;;;10.50;6.18;;;10.60;99.90;;;;;;5032539;28;20017;-68
2022/11/05 06:18:48;;;;;;;10.45;6.15;;;10.60;99.90;;;;;;5031391;28;20051;-59
2022/11/05 06:21:16;;;;;;;10.00;5.53;;;10.60;99.90;;;;;;5032669;28;20550;-60
2022/11/05 06:23:43;;;;;;;7.72;5.68;;;10.60;99.90;;;;;;5051207;28;20041;-60
2022/11/05 06:26:12;;;;;;;10.93;5.80;;;10.60;99.90;;;;;;5051434;28;20226;-60
2022/11/05 06:28:38;;;;;;;9.07;6.22;;;10.60;99.90;;;;;;5052606;28;20134;-62
2022/11/05 06:31:04;;;;;;;8.50;5.68;;;10.50;99.90;;;;;;5052296;28;20470;-64
2022/11/05 06:33:30;;;;;;;6.82;5.70;;;10.60;99.90;;;;;;5052359;28;20039;-60
2022/11/05 06:36:00;;;;;;;10.48;6.20;;;10.60;99.90;;;;;;5052379;28;20017;-60
2022/11/05 06:38:26;;;;;;;7.57;5.88;;;10.50;99.90;;;;;;5052365;28;20513;-60
2022/11/05 06:40:51;;;;;;;10.55;6.45;;;10.50;99.90;;;;;;5053660;28;20029;-59
2022/11/05 06:43:17;;;;;;;9.65;6.18;;;10.60;99.90;;;;;;5056107;28;20040;-59
2022/11/05 06:45:43;;;;;;;10.65;6.38;;;10.50;99.90;;;;;;5054725;28;20025;-60
2022/11/05 06:48:08;;;;;;;8.02;6.03;;;10.60;99.90;;;;;;5056106;28;20029;-60
2022/11/05 06:50:34;;;;;;;10.55;6.50;;;10.60;99.90;;;;;;5056068;28;20037;-60
2022/11/05 06:53:01;;;;;;;15.95;7.57;;;10.50;99.90;;;;;;5056704;28;20028;-60
2022/11/05 06:55:29;;;;;;;12.23;7.20;;;10.60;99.90;;;;;;5055945;28;20032;-61
2022/11/05 06:57:56;;;;;;;12.82;6.78;;;10.60;99.90;;;;;;5056020;28;20037;-59
2022/11/05 07:00:21;;;;;;;9.85;6.93;;;10.60;99.90;;;;;;5055959;28;20025;-62
2022/11/05 07:02:47;;;;;;;7.68;6.30;;;10.50;99.90;;;;;;5055668;28;20104;-60
2022/11/05 07:05:14;;;;;;;11.18;7.35;;;10.50;99.90;;;;;;5055322;28;20076;-60
2022/11/05 07:07:41;;;;;;;11.63;7.20;;;10.50;99.90;;;;;;5054963;28;20029;-60
2022/11/05 07:10:09;;;;;;;9.15;6.80;;;10.50;99.90;;;;;;5055730;28;20035;-64
2022/11/05 07:12:35;;;;;;;10.77;6.65;;;10.50;99.90;;;;;;5055493;28;20025;-62
2022/11/05 07:15:00;;;;;;;10.45;6.78;;;10.50;99.90;;;;;;5055556;28;20032;-68
2022/11/05 07:17:26;;;;;;;10.90;6.50;;;10.40;99.90;;;;;;5055817;28;20527;-69
2022/11/05 07:19:52;;;;;;;12.52;7.43;;;10.40;99.90;;;;;;5055713;28;20529;-62
2022/11/05 07:22:17;;;;;;;10.07;7.35;;;10.40;99.90;;;;;;5055680;28;20367;-60
2022/11/05 07:24:46;;;;;;;13.05;7.45;;;10.50;99.90;;;;;;5055036;28;20037;-64
2022/11/05 07:27:12;;;;;;;13.63;8.07;;;10.50;99.90;;;;;;5044482;28;20106;-61
2022/11/05 07:29:37;;;;;;;12.70;8.45;;;10.50;99.90;;;;;;5043337;28;20396;-60
2022/11/05 07:32:03;;;;;;;11.07;8.30;;;10.50;99.90;;;;;;5045123;28;20029;-62
2022/11/05 07:34:28;;;;;;;15.48;7.90;;;10.40;99.90;;;;;;5044571;28;20017;-69
2022/11/05 07:36:54;;;;;;;11.95;8.73;;;10.40;99.90;;;;;;5050897;28;20086;-62
2022/11/05 07:39:20;;;;;;;15.80;9.43;;;10.70;99.90;;;;;;5047833;28;20079;-68
2022/11/05 07:41:45;;;;;;;12.70;9.25;;;10.90;99.90;;;;;;5047744;28;20074;-62
2022/11/05 07:44:13;;;;;;;12.55;8.82;;;11.00;99.90;;;;;;5051931;28;20047;-68
2022/11/05 07:46:39;;;;;;;13.73;5.75;;;11.00;99.90;;;;;;5057982;28;20104;-61
2022/11/05 07:49:05;;;;;;;10.63;6.22;;;11.10;99.90;;;;;;5060347;28;20048;-64
2022/11/05 07:51:31;;;;;;;13.30;7.68;;;10.90;99.90;;;;;;5040351;28;20471;-66
2022/11/05 07:53:56;;;;;;;8.55;7.10;;;10.80;99.90;;;;;;5038054;28;20099;-68
2022/11/05 07:56:22;;;;;;;11.18;6.45;;;10.80;99.90;;;;;;5050664;28;20041;-70
2022/11/05 07:58:47;;;;;;;11.18;6.85;;;10.70;99.90;;;;;;5047898;28;20151;-68
2022/11/05 08:01:13;;;;;;;14.32;6.85;;;10.70;99.90;;;;;;5046843;28;20407;-69
2022/11/05 08:03:38;;;;;;;10.15;6.85;;;10.70;99.90;;;;;;5043417;28;20049;-64
2022/11/05 08:06:04;;;;;;;9.38;6.80;;;10.60;99.90;;;;;;5052701;28;20028;-68
2022/11/05 08:08:30;;;;;;;12.68;6.70;;;10.60;99.90;;;;;;5056682;28;20374;-70
2022/11/05 08:11:02;;;;;;;10.45;5.43;;;10.60;99.90;;;;;;5051186;28;20025;-64
2022/11/05 08:13:28;;;;;;;17.77;6.75;;;10.60;99.90;;;;;;5050809;28;20028;-72
2022/11/05 08:15:55;;;;;;;10.15;5.55;;;10.60;99.90;;;;;;5052228;28;20028;-68
2022/11/05 08:18:21;;;;;;;10.77;7.03;;;10.60;99.90;;;;;;5052745;28;20021;-61
2022/11/05 08:20:46;;;;;;;8.93;5.43;;;10.70;99.90;;;;;;5054301;28;20092;-68
2022/11/05 08:23:12;;;;;;;12.23;5.85;;;10.70;99.90;;;;;;5052460;28;20028;-64
2022/11/05 08:25:38;;;;;;;10.75;6.20;;;10.80;99.90;;;;;;5054388;28;20043;-67
2022/11/05 08:28:07;;;;;;;12.02;6.68;;;10.80;99.90;;;;;;5053773;28;20471;-70
2022/11/05 08:30:33;;;;;;;12.52;5.93;;;10.80;99.90;;;;;;5054038;28;20037;-71
2022/11/05 08:33:04;;;;;;;10.50;7.05;;;10.80;99.90;;;;;;5053738;28;20033;-71
2022/11/05 08:35:29;;;;;;;10.50;5.38;;;10.80;99.90;;;;;;5054353;28;20025;-71
2022/11/05 08:38:01;;;;;;;9.45;6.20;;;10.70;99.90;;;;;;5053967;28;20036;-62
2022/11/05 08:40:28;;;;;;;11.13;7.13;;;10.80;99.90;;;;;;5054308;28;20079;-71
2022/11/05 08:42:56;;;;;;;11.15;6.57;;;10.70;99.90;;;;;;5054435;28;20033;-67
2022/11/05 08:45:23;;;;;;;11.60;7.40;;;10.80;99.90;;;;;;5062424;28;20394;-71
2022/11/05 08:47:49;;;;;;;11.35;7.05;;;10.80;99.90;;;;;;5057514;28;20024;-71
2022/11/05 08:50:15;;;;;;;11.75;6.32;;;10.80;99.90;;;;;;5051478;28;20037;-71
2022/11/05 08:52:41;;;;;;;11.15;7.95;;;10.80;99.90;;;;;;5053318;28;20014;-69
2022/11/05 08:55:07;;;;;;;11.95;7.18;;;10.80;99.90;;;;;;5057660;28;20021;-64
2022/11/05 08:57:33;;;;;;;11.02;6.40;;;10.80;99.90;;;;;;5054240;28;20060;-65
2022/11/05 08:59:58;;;;;;;12.25;7.47;;;10.90;99.90;;;;;;5060960;28;20056;-63
2022/11/05 09:02:24;;;;;;;10.85;7.10;;;10.80;99.90;;;;;;5047436;28;20021;-64
2022/11/05 09:04:49;;;;;;;13.20;7.07;;;10.90;99.90;;;;;;5055009;28;20436;-71
2022/11/05 09:07:15;;;;;;;9.68;6.15;;;10.90;99.90;;;;;;5059307;28;20583;-70
2022/11/05 09:09:41;;;;;;;8.40;5.65;;;10.90;99.90;;;;;;5059716;28;20070;-63
2022/11/05 09:12:06;;;;;;;7.82;4.72;;;11.00;99.90;;;;;;5051618;28;21258;-71
2022/11/05 09:14:32;;;;;;;8.30;5.20;;;11.00;99.90;;;;;;5063849;28;20023;-64
2022/11/05 09:16:58;;;;;;;10.50;6.72;;;11.00;99.90;;;;;;5053720;28;20064;-67
2022/11/05 09:19:23;;;;;;;14.10;5.68;;;11.00;99.90;;;;;;5051283;28;20028;-62
2022/11/05 09:21:49;;;;;;;9.93;6.35;;;11.00;99.90;;;;;;5048751;28;20075;-62
2022/11/05 09:24:14;;;;;;;16.45;6.63;;;11.10;99.90;;;;;;5056575;28;20044;-60
2022/11/05 09:26:40;;;;;;;14.43;5.28;;;11.10;99.90;;;;;;5066982;28;20036;-61
2022/11/05 09:29:05;;;;;;;11.50;6.57;;;11.10;99.90;;;;;;5055389;28;20032;-61
2022/11/05 09:31:31;;;;;;;11.13;6.82;;;11.10;99.90;;;;;;5065559;28;20017;-61
2022/11/05 09:33:57;;;;;;;10.93;5.45;;;11.10;99.90;;;;;;5061958;28;20031;-70
2022/11/05 09:36:22;;;;;;;9.63;5.50;;;11.20;99.90;;;;;;5060500;28;20082;-64
2022/11/05 09:38:48;;;;;;;7.30;5.35;;;11.20;99.90;;;;;;5056707;28;20064;-67
2022/11/05 09:41:28;;;;;;;11.80;6.55;;;11.20;99.90;;;;;;5067350;28;20057;-66
2022/11/05 09:44:29;;;;;;;10.98;5.47;;;11.20;99.90;;;;;;5061486;28;20143;-65
2022/11/05 09:46:59;;;;;;;9.30;5.95;;;11.20;99.90;;;;;;5054018;28;20156;-69
2022/11/05 09:49:30;;;;;;;15.35;6.05;;;11.30;99.90;;;;;;5065984;28;20056;-68
2022/11/05 09:51:57;;;;;;;10.43;6.30;;;11.20;99.90;;;;;;5048718;28;20040;-66
2022/11/05 09:54:26;;;;;;;12.50;6.45;;;11.30;99.90;;;;;;5065691;28;20051;-67
2022/11/05 09:56:54;;;;;;;13.68;6.50;;;11.30;99.90;;;;;;5055289;28;20032;-65
2022/11/05 09:59:28;;;;;;;12.02;6.18;;;11.30;99.90;;;;;;5065293;28;20017;-72
2022/11/05 10:02:02;;;;;;;14.38;7.25;;;11.30;99.90;;;;;;5052507;28;20025;-71
2022/11/05 10:04:30;;;;;;;14.07;6.20;;;11.30;99.90;;;;;;5057573;28;20037;-70
2022/11/05 10:07:03;;;;;;;13.30;6.75;;;11.30;99.90;;;;;;5054206;28;20453;-65
2022/11/05 10:09:44;;;;;;;12.95;6.70;;;11.30;99.90;;;;;;5056325;28;20032;-70
2022/11/05 10:12:35;;;;;;;16.00;7.75;;;11.30;99.90;;;;;;5049380;28;20109;-65
2022/11/05 10:15:25;;;;;;;18.07;8.23;;;11.40;99.90;;;;;;5069750;28;20024;-69
2022/11/05 10:18:00;;;;;;;22.50;9.30;;;11.40;99.90;;;;;;5065878;28;20036;-68
2022/11/05 10:20:25;;;;;;;16.80;6.88;;;11.40;99.90;;;;;;5064295;28;20024;-68
2022/11/05 10:22:55;;;;;;;21.83;5.90;;;11.40;99.90;;;;;;5056051;28;20093;-71
2022/11/05 10:25:23;;;;;;;23.20;5.18;;;11.50;99.90;;;;;;5059445;28;20033;-73
2022/11/05 10:27:54;;;;;;;20.23;6.30;;;11.60;99.90;;;;;;5057910;28;20505;-62
2022/11/05 10:30:20;;;;;;;16.70;4.97;;;11.60;99.90;;;;;;5051097;28;20025;-61
2022/11/05 10:32:47;;;;;;;11.75;5.25;;;11.60;99.90;;;;;;5065040;28;20496;-63
2022/11/05 10:35:21;;;;;;;12.98;5.25;;;11.70;99.90;;;;;;5054851;28;20017;-65
2022/11/05 10:37:48;;;;;;;13.10;5.07;;;11.70;99.90;;;;;;5069536;28;20111;-71
2022/11/05 10:40:40;;;;;;;8.95;5.03;;;11.70;99.90;;;;;;5059969;28;20485;-62
2022/11/05 10:43:12;;;;;;;11.43;4.50;;;11.80;99.90;;;;;;5060499;28;20043;-61
2022/11/05 10:45:46;;;;;;;11.03;4.67;;;11.80;99.90;;;;;;5070826;28;20032;-64
2022/11/05 10:48:39;;;;;;;7.28;4.28;;;11.80;99.90;;;;;;5060566;28;20020;-65
2022/11/05 10:51:07;;;;;;;12.90;3.95;;;11.90;99.90;;;;;;5058962;28;20056;-65
2022/11/05 10:53:35;;;;;;;7.60;3.95;;;11.80;99.90;;;;;;5062967;28;20363;-72
2022/11/05 10:56:01;;;;;;;7.80;5.00;;;11.90;99.90;;;;;;5067484;28;20067;-66
2022/11/05 10:58:30;;;;;;;6.97;4.43;;;11.90;99.90;;;;;;5053515;28;20044;-65
2022/11/05 11:00:56;;;;;;;9.48;4.82;;;11.90;99.90;;;;;;5065798;28;20025;-67
2022/11/05 11:03:37;;;;;;;9.65;4.03;;;11.90;99.90;;;;;;5057329;28;20021;-61
2022/11/05 11:06:23;;;;;;;9.27;4.33;;;12.00;99.90;;;;;;5056812;28;20047;-64
2022/11/05 11:08:51;;;;;;;9.90;3.20;;;12.00;99.90;;;;;;5061459;28;20074;-65
2022/11/05 11:11:40;;;;;;;9.32;3.45;;;12.00;99.90;;;;;;5055470;28;20021;-64
2022/11/05 11:14:12;;;;;;;7.43;4.10;;;12.10;99.90;;;;;;5053534;28;20024;-61
2022/11/05 11:16:40;;;;;;;6.93;4.43;;;12.10;99.90;;;;;;5058142;28;20037;-68
2022/11/05 11:19:24;;;;;;;9.13;3.75;;;12.10;99.90;;;;;;5033132;28;20021;-68
2022/11/05 11:22:02;;;;;;;11.43;4.57;;;12.20;99.90;;;;;;5048871;28;20021;-72
2022/11/05 11:24:28;;;;;;;11.65;4.10;;;12.20;99.90;;;;;;5052492;28;20041;-69
2022/11/05 11:26:59;;;;;;;10.27;3.97;;;12.20;99.90;;;;;;5057678;28;20021;-69
2022/11/05 11:29:27;;;;;;;10.50;4.27;;;12.20;99.90;;;;;;5050051;28;20029;-72
2022/11/05 11:31:55;;;;;;;13.68;3.97;;;12.20;99.90;;;;;;5059180;28;20294;-68
2022/11/05 11:34:34;;;;;;;8.48;3.72;;;12.30;99.90;;;;;;5048486;28;20024;-67
2022/11/05 11:37:13;;;;;;;10.50;4.00;;;12.30;99.90;;;;;;5051434;28;20545;-73
2022/11/05 11:39:42;;;;;;;7.75;3.20;;;12.40;99.90;;;;;;5054078;28;20032;-71
2022/11/05 11:42:22;;;;;;;11.27;2.22;;;12.30;99.90;;;;;;5052101;28;20025;-64
2022/11/05 11:44:49;;;;;;;15.30;3.92;;;12.40;99.90;;;;;;5045320;28;20043;-72
2022/11/05 11:47:17;;;;;;;16.48;3.85;;;12.50;99.90;;;;;;5046354;28;20020;-67
2022/11/05 11:49:45;;;;;;;12.63;4.00;;;12.50;99.90;;;;;;5053798;28;20100;-70
2022/11/05 11:52:27;;;;;;;12.70;3.75;;;12.50;99.90;;;;;;5053770;28;20033;-67
2022/11/05 11:55:15;;;;;;;11.68;4.13;;;12.60;99.90;;;;;;5061105;28;20067;-65
2022/11/05 11:57:48;;;;;;;14.75;3.75;;;12.70;99.90;;;;;;5047974;28;20033;-70
2022/11/05 12:00:15;;;;;;;9.27;3.90;;;12.70;99.90;;;;;;5043192;28;20028;-71
2022/11/05 12:03:01;;;;;;;9.88;4.13;;;12.70;99.90;;;;;;5053729;28;20030;-61
2022/11/05 12:05:44;;;;;;;7.38;4.18;;;12.70;99.90;;;;;;5049442;28;20041;-72
2022/11/05 12:08:40;;;;;;;10.05;4.60;;;12.70;99.90;;;;;;5047221;28;20293;-71
2022/11/05 12:11:29;;;;;;;8.00;4.90;;;12.70;99.90;;;;;;5050687;28;20029;-64
2022/11/05 12:14:27;;;;;;;7.35;3.83;;;12.70;99.90;;;;;;5045458;28;20028;-61
2022/11/05 12:17:02;;;;;;;9.68;4.63;;;12.70;99.90;;;;;;5047182;28;20032;-70
2022/11/05 12:19:34;;;;;;;9.43;3.67;;;12.70;99.90;;;;;;5052645;28;20029;-65
2022/11/05 12:22:23;;;;;;;8.45;4.30;;;12.70;99.90;;;;;;5049826;28;20094;-70
2022/11/05 12:24:57;;;;;;;11.38;5.05;;;12.70;99.90;;;;;;5057411;28;20044;-61
2022/11/05 12:27:39;;;;;;;8.05;5.13;;;12.70;99.90;;;;;;5057288;28;20058;-71
2022/11/05 12:30:19;;;;;;;7.10;4.65;;;12.70;99.90;;;;;;5046957;28;20025;-68
2022/11/05 12:33:04;;;;;;;8.77;5.57;;;12.80;99.90;;;;;;5050036;28;20080;-64
2022/11/05 12:35:40;;;;;;;10.50;3.92;;;12.80;99.90;;;;;;5052351;28;20148;-65
2022/11/05 12:38:44;;;;;;;15.63;3.72;;;12.80;99.90;;;;;;5052207;28;20017;-66
2022/11/05 12:41:22;;;;;;;9.68;3.50;;;12.90;99.90;;;;;;5042467;28;20033;-70
2022/11/05 12:44:15;;;;;;;9.07;4.00;;;12.80;99.90;;;;;;5051806;28;20536;-62
2022/11/05 12:47:16;;;;;;;9.70;3.92;;;12.90;99.90;;;;;;5048821;28;20028;-64
2022/11/05 12:50:15;;;;;;;10.65;4.30;;;12.90;99.90;;;;;;5046480;28;20043;-60
2022/11/05 12:52:47;;;;;;;12.90;4.35;;;13.00;99.90;;;;;;5043577;28;20570;-69
2022/11/05 12:55:18;;;;;;;8.25;3.90;;;13.00;99.90;;;;;;5043696;28;20385;-60
2022/11/05 12:57:47;;;;;;;13.27;4.22;;;13.00;99.90;;;;;;5046300;28;20510;-68
2022/11/05 13:00:19;;;;;;;10.93;3.65;;;13.10;99.90;;;;;;5045261;28;20031;-67
2022/11/05 13:03:27;;;;;;;12.73;3.58;;;13.10;99.90;;;;;;5047681;28;20028;-63
2022/11/05 13:06:17;;;;;;;10.57;5.20;;;13.10;99.90;;;;;;5038745;28;20049;-69
2022/11/05 13:08:59;;;;;;;11.93;4.20;;;13.10;99.90;;;;;;5042068;28;20048;-69
2022/11/05 13:11:34;;;;;;;15.27;4.32;;;13.10;99.90;;;;;;5049306;28;20402;-59
2022/11/05 13:14:20;;;;;;;13.13;4.05;;;13.20;99.90;;;;;;5043166;28;20179;-68
2022/11/05 13:16:48;;;;;;;12.45;4.15;;;13.20;99.90;;;;;;5044350;28;20049;-72
2022/11/05 13:19:28;;;;;;;11.57;3.50;;;13.20;99.90;;;;;;5044927;28;20051;-61
2022/11/05 13:22:10;;;;;;;15.95;4.65;;;13.20;99.90;;;;;;5049179;28;20029;-71
2022/11/05 13:24:54;;;;;;;13.25;4.03;;;13.20;99.90;;;;;;5040745;28;20040;-66
2022/11/05 13:27:19;;;;;;;15.75;5.38;;;13.30;99.90;;;;;;5056115;28;20097;-66
2022/11/05 13:29:51;;;;;;;11.45;5.13;;;13.30;99.90;;;;;;5041235;28;20450;-65
2022/11/05 13:32:37;;;;;;;7.45;5.18;;;13.30;99.90;;;;;;5042699;28;20036;-72
2022/11/05 13:35:06;;;;;;;10.10;5.20;;;13.30;99.90;;;;;;5047062;28;20049;-70
2022/11/05 13:40:35;;;;;;;;;;;13.30;99.90;;;;;;5048663;28;20087;-71
2022/11/05 13:43:18;;;;;;;8.93;4.90;;;13.20;99.90;;;;;;5052916;28;19995;-63